Time;durP1;ratioP1;P1;durP2;ratioP2;P2;SDS_P1;SDS_P2;PMS_P1;PMS_P2;Temp;Humidity;BMP_temperature;BMP_pressure;BME280_temperature;BME280_humidity;BME280_pressure;Samples;Min_cycle;Max_cycle;Signal;HPM_P1;HPM_P2
2023/10/16 00:02:24;;;;;;;18.15;5.97;;;21.10;99.90;;;;;;5074535;28;20028;-70
2023/10/16 00:04:52;;;;;;;27.08;5.93;;;21.20;99.90;;;;;;5074360;28;20317;-70
2023/10/16 00:07:21;;;;;;;20.92;6.10;;;21.20;99.90;;;;;;5092422;28;20020;-71
2023/10/16 00:09:53;;;;;;;17.42;6.90;;;21.20;99.90;;;;;;5092608;28;20040;-71
2023/10/16 00:12:20;;;;;;;22.05;6.57;;;21.20;99.90;;;;;;5092213;28;20020;-72
2023/10/16 00:14:46;;;;;;;27.60;6.75;;;21.20;99.90;;;;;;5073658;28;20361;-71
2023/10/16 00:17:15;;;;;;;25.45;6.97;;;21.20;99.90;;;;;;5073717;28;20028;-71
2023/10/16 00:19:44;;;;;;;26.90;6.45;;;21.20;99.90;;;;;;5092251;28;20078;-70
2023/10/16 00:22:16;;;;;;;19.80;6.38;;;21.20;99.90;;;;;;5092592;28;20430;-70
2023/10/16 00:24:46;;;;;;;25.27;6.22;;;21.30;99.90;;;;;;5092348;28;20032;-70
2023/10/16 00:27:15;;;;;;;20.17;6.75;;;21.20;99.90;;;;;;5091246;28;20024;-71
2023/10/16 00:29:43;;;;;;;20.65;6.40;;;21.20;99.90;;;;;;5072153;28;20017;-71
2023/10/16 00:32:12;;;;;;;18.67;6.38;;;21.20;99.90;;;;;;5071661;28;20063;-70
2023/10/16 00:34:39;;;;;;;31.90;7.00;;;21.30;99.90;;;;;;5071715;28;20020;-71
2023/10/16 00:37:06;;;;;;;25.85;6.85;;;21.30;99.90;;;;;;5071447;28;20079;-71
2023/10/16 00:39:35;;;;;;;30.27;6.65;;;21.30;99.90;;;;;;5049686;28;20048;-71
2023/10/16 00:42:02;;;;;;;25.70;6.75;;;21.20;99.90;;;;;;5051859;28;20373;-71
2023/10/16 00:44:38;;;;;;;21.27;7.30;;;21.30;99.90;;;;;;5051392;28;20464;-71
2023/10/16 00:47:05;;;;;;;27.15;7.13;;;21.20;99.90;;;;;;5050026;28;20385;-71
2023/10/16 00:49:34;;;;;;;22.40;7.43;;;21.30;99.90;;;;;;5051473;28;20107;-71
2023/10/16 00:52:04;;;;;;;23.23;6.60;;;21.20;99.90;;;;;;5051617;28;20082;-71
2023/10/16 00:54:33;;;;;;;28.05;7.20;;;21.20;99.90;;;;;;5051418;28;20021;-72
2023/10/16 00:57:00;;;;;;;23.45;7.45;;;21.30;99.90;;;;;;5051276;28;20027;-71
2023/10/16 00:59:28;;;;;;;21.10;7.80;;;21.30;99.90;;;;;;5070130;28;20064;-71
2023/10/16 01:02:14;;;;;;;21.58;8.38;;;21.30;99.90;;;;;;5071016;28;20103;-71
2023/10/16 01:04:41;;;;;;;27.15;8.68;;;21.20;99.90;;;;;;5071748;28;20094;-71
2023/10/16 01:07:08;;;;;;;24.80;8.57;;;21.20;99.90;;;;;;5071354;28;20031;-71
2023/10/16 01:09:35;;;;;;;27.10;8.85;;;21.20;99.90;;;;;;5071436;28;20116;-72
2023/10/16 01:12:12;;;;;;;29.27;8.55;;;21.20;99.90;;;;;;5071146;28;20433;-71
2023/10/16 01:14:38;;;;;;;;;;;21.10;99.90;;;;;;5071888;28;20055;-71
2023/10/16 01:17:12;;;;;;;22.42;8.70;;;21.10;99.90;;;;;;5071144;28;20007;-71
2023/10/16 01:19:43;;;;;;;35.17;9.32;;;21.10;99.90;;;;;;5071009;28;20032;-71
2023/10/16 01:22:13;;;;;;;26.58;9.57;;;21.20;99.90;;;;;;5069625;28;20024;-70
2023/10/16 01:24:43;;;;;;;34.25;9.25;;;21.20;99.90;;;;;;5070892;28;20086;-70
2023/10/16 01:27:14;;;;;;;23.92;7.93;;;21.20;99.90;;;;;;5071033;28;20029;-71
2023/10/16 01:29:41;;;;;;;30.77;8.60;;;21.20;99.90;;;;;;5071259;28;20452;-71
2023/10/16 01:32:07;;;;;;;25.67;9.10;;;21.10;99.90;;;;;;5071042;28;20050;-72
2023/10/16 01:34:34;;;;;;;;;;;21.10;99.90;;;;;;5071663;28;20107;-70
2023/10/16 01:37:08;;;;;;;24.92;8.57;;;21.00;99.90;;;;;;5071351;28;20244;-71
2023/10/16 01:39:53;;;;;;;23.30;8.43;;;21.00;99.90;;;;;;5080367;28;20055;-72
2023/10/16 01:42:20;;;;;;;31.30;9.63;;;21.00;99.90;;;;;;5072993;28;20100;-70
2023/10/16 01:44:46;;;;;;;26.55;8.88;;;21.00;99.90;;;;;;5091114;28;20062;-70
2023/10/16 01:47:15;;;;;;;26.40;9.23;;;21.10;99.90;;;;;;5072485;28;20059;-71
2023/10/16 01:49:42;;;;;;;28.60;9.55;;;21.10;99.90;;;;;;5090793;28;20055;-71
2023/10/16 01:52:11;;;;;;;20.70;10.20;;;21.00;99.90;;;;;;5090917;28;20031;-71
2023/10/16 01:54:45;;;;;;;29.25;9.40;;;21.00;99.90;;;;;;5091136;28;20400;-72
2023/10/16 01:57:12;;;;;;;25.25;9.73;;;21.00;99.90;;;;;;5091129;28;20044;-71
2023/10/16 01:59:47;;;;;;;31.02;9.75;;;21.00;99.90;;;;;;5090488;28;20039;-72
2023/10/16 02:02:13;;;;;;;28.30;9.80;;;21.00;99.90;;;;;;5091012;28;20072;-71
2023/10/16 02:04:40;;;;;;;21.70;10.02;;;21.00;99.90;;;;;;5091065;28;20052;-71
2023/10/16 02:07:08;;;;;;;33.28;10.48;;;21.00;99.90;;;;;;5090881;28;20031;-72
2023/10/16 02:09:38;;;;;;;29.40;10.43;;;21.00;99.90;;;;;;5090873;28;20031;-71
2023/10/16 02:12:14;;;;;;;25.35;9.57;;;21.00;99.90;;;;;;5090527;28;20032;-72
2023/10/16 02:14:40;;;;;;;27.63;9.98;;;21.00;99.90;;;;;;5094365;28;20093;-71
2023/10/16 02:17:23;;;;;;;28.02;9.10;;;21.00;99.90;;;;;;5094959;28;20032;-71
2023/10/16 02:19:51;;;;;;;28.48;9.32;;;21.00;99.90;;;;;;5094426;28;20412;-71
2023/10/16 02:22:22;;;;;;;28.17;9.82;;;21.00;99.90;;;;;;5094603;28;20084;-71
2023/10/16 02:24:49;;;;;;;29.52;10.00;;;21.00;99.90;;;;;;5093827;28;20024;-71
2023/10/16 02:27:18;;;;;;;30.65;9.88;;;21.00;99.90;;;;;;5094312;28;20461;-71
2023/10/16 02:29:49;;;;;;;29.33;10.25;;;21.00;99.90;;;;;;5094461;28;20030;-71
2023/10/16 02:32:16;;;;;;;20.67;9.13;;;21.00;99.90;;;;;;5094449;28;20070;-71
2023/10/16 02:34:42;;;;;;;;;;;21.00;99.90;;;;;;5076070;28;20028;-70
2023/10/16 02:37:13;;;;;;;29.73;10.07;;;21.00;99.90;;;;;;5094223;28;20349;-71
2023/10/16 02:39:41;;;;;;;32.90;10.25;;;21.00;99.90;;;;;;5093771;28;20052;-70
2023/10/16 02:42:14;;;;;;;24.40;10.25;;;21.00;99.90;;;;;;5094038;28;20023;-73
2023/10/16 02:44:45;;;;;;;29.42;10.30;;;20.90;99.90;;;;;;5093502;28;20038;-70
2023/10/16 02:47:25;;;;;;;32.72;10.70;;;20.90;99.90;;;;;;5093889;28;20035;-71
2023/10/16 02:49:52;;;;;;;28.02;10.55;;;21.00;99.90;;;;;;5094146;28;20016;-71
2023/10/16 02:52:19;;;;;;;33.45;10.63;;;21.00;99.90;;;;;;5075483;28;20177;-71
2023/10/16 02:54:46;;;;;;;27.17;9.55;;;21.00;99.90;;;;;;5075498;28;20077;-73
2023/10/16 02:57:14;;;;;;;25.23;9.88;;;21.00;99.90;;;;;;5093616;28;20081;-70
2023/10/16 02:59:43;;;;;;;26.90;10.52;;;21.00;99.90;;;;;;5093699;28;20032;-70
2023/10/16 03:02:22;;;;;;;19.70;9.48;;;21.00;99.90;;;;;;5093861;28;20602;-72
2023/10/16 03:04:51;;;;;;;27.85;9.65;;;21.00;99.90;;;;;;5094446;28;20136;-71
2023/10/16 03:07:21;;;;;;;24.95;9.48;;;21.00;99.90;;;;;;5076569;28;20073;-70
2023/10/16 03:09:50;;;;;;;35.38;9.68;;;20.90;99.90;;;;;;5094270;28;20043;-71
2023/10/16 03:12:19;;;;;;;27.40;10.43;;;20.90;99.90;;;;;;5094538;28;20024;-71
2023/10/16 03:14:46;;;;;;;24.17;10.23;;;20.80;99.90;;;;;;5094251;28;20024;-71
2023/10/16 03:19:57;;;;;;;27.50;10.80;;;20.80;99.90;;;;;;5094400;28;20028;-71
2023/10/16 03:22:23;;;;;;;27.08;10.48;;;20.80;99.90;;;;;;5094636;28;20032;-71
2023/10/16 03:24:51;;;;;;;24.55;9.75;;;20.90;99.90;;;;;;5094941;28;20031;-72
2023/10/16 03:27:29;;;;;;;29.02;8.75;;;20.90;99.90;;;;;;5094552;28;20123;-71
2023/10/16 03:29:56;;;;;;;28.25;10.30;;;20.90;99.90;;;;;;5076281;28;20077;-72
2023/10/16 03:32:23;;;;;;;40.67;11.75;;;20.90;99.90;;;;;;5094752;28;20069;-71
2023/10/16 03:34:51;;;;;;;22.65;9.93;;;20.90;99.90;;;;;;5094551;28;20053;-72
2023/10/16 03:37:18;;;;;;;26.50;10.75;;;20.80;99.90;;;;;;5094382;28;20024;-71
2023/10/16 03:39:46;;;;;;;26.80;10.32;;;20.80;99.90;;;;;;5072602;28;20392;-72
2023/10/16 03:42:17;;;;;;;26.25;9.80;;;20.90;99.90;;;;;;5073962;28;20099;-72
2023/10/16 03:44:43;;;;;;;28.85;10.05;;;20.80;99.90;;;;;;5073930;28;20042;-72
2023/10/16 03:47:10;;;;;;;38.85;10.60;;;20.80;99.90;;;;;;5074088;28;20457;-71
2023/10/16 03:49:37;;;;;;;27.45;9.85;;;20.60;99.90;;;;;;5073812;28;20055;-72
2023/10/16 03:52:04;;;;;;;;;;;20.50;99.90;;;;;;5072944;28;20105;-71
2023/10/16 03:54:31;;;;;;;25.45;9.15;;;20.40;99.90;;;;;;5073747;28;20296;-71
2023/10/16 03:57:00;;;;;;;27.30;9.73;;;20.50;99.90;;;;;;5073717;28;20461;-71
2023/10/16 03:59:29;;;;;;;29.00;9.90;;;20.50;99.90;;;;;;5073297;28;20108;-71
2023/10/16 04:01:56;;;;;;;25.38;9.10;;;20.50;99.90;;;;;;5073349;28;20108;-71
2023/10/16 04:04:25;;;;;;;;;;;20.50;99.90;;;;;;5074336;28;20032;-72
2023/10/16 04:06:57;;;;;;;25.55;9.70;;;20.60;99.90;;;;;;5072143;28;20365;-71
2023/10/16 04:09:30;;;;;;;26.48;9.55;;;20.60;99.90;;;;;;5073535;28;20032;-71
2023/10/16 04:12:02;;;;;;;27.27;9.43;;;20.60;99.90;;;;;;5073842;28;20342;-71
2023/10/16 04:17:34;;;;;;;26.90;9.48;;;20.60;99.90;;;;;;5031023;28;20029;-71
2023/10/16 04:20:42;;;;;;;21.45;8.95;;;20.60;99.90;;;;;;5031813;28;20046;-71
2023/10/16 04:22:57;;;;;;;25.98;8.85;;;20.60;99.90;;;;;;5031515;28;20040;-73
2023/10/16 04:25:32;;;;;;;21.55;9.02;;;20.60;99.90;;;;;;5031907;28;20073;-70
2023/10/16 04:28:18;;;;;;;24.90;8.80;;;20.60;99.90;;;;;;5031758;28;20394;-71
2023/10/16 04:30:47;;;;;;;30.55;9.35;;;20.60;99.90;;;;;;5033012;28;20549;-71
2023/10/16 04:33:16;;;;;;;27.58;9.38;;;20.60;99.90;;;;;;5016984;28;20068;-72
2023/10/16 04:38:31;;;;;;;28.25;9.25;;;20.50;99.90;;;;;;5031270;28;20385;-71
2023/10/16 04:46:54;;;;;;;28.08;10.23;;;20.60;99.90;;;;;;5031083;28;20113;-71
2023/10/16 04:49:14;;;;;;;29.20;10.20;;;20.60;99.90;;;;;;5030808;28;20029;-71
2023/10/16 04:51:52;;;;;;;26.23;10.18;;;20.60;99.90;;;;;;5044089;28;20025;-71
2023/10/16 04:55:02;;;;;;;29.08;10.15;;;20.60;99.90;;;;;;5052867;28;20481;-71
2023/10/16 05:02:34;;;;;;;27.33;9.82;;;20.60;99.90;;;;;;5073217;28;20036;-73
2023/10/16 05:07:53;;;;;;;26.25;9.82;;;20.60;99.90;;;;;;5072829;28;20035;-72
2023/10/16 05:13:35;;;;;;;33.35;10.18;;;20.60;99.90;;;;;;5072402;28;20055;-72
2023/10/16 05:18:48;;;;;;;34.37;10.97;;;20.70;99.90;;;;;;5073021;28;20048;-71
2023/10/16 06:16:16;;;;;;;24.45;6.45;;;27.50;99.90;;;;;;5095179;28;20055;-71
2023/10/16 06:18:43;;;;;;;20.10;5.90;;;28.40;99.90;;;;;;5095701;28;20032;-71
2023/10/16 06:21:09;;;;;;;26.08;5.97;;;29.00;99.90;;;;;;5095372;28;20078;-72
2023/10/16 06:23:42;;;;;;;20.63;6.30;;;29.50;99.90;;;;;;5095070;28;20440;-73
2023/10/16 06:26:14;;;;;;;21.55;5.55;;;30.00;99.90;;;;;;5095119;28;20372;-73
2023/10/16 06:28:47;;;;;;;23.63;6.00;;;30.50;99.90;;;;;;5110807;28;20115;-72
2023/10/16 06:31:25;;;;;;;20.88;5.40;;;30.80;99.90;;;;;;5076894;28;20522;-72
2023/10/16 06:33:53;;;;;;;21.50;5.03;;;31.60;99.90;;;;;;5095634;28;20534;-72
2023/10/16 06:36:20;;;;;;;40.67;6.05;;;32.00;99.90;;;;;;5095052;28;20024;-71
2023/10/16 06:38:51;;;;;;;25.45;5.18;;;32.00;99.90;;;;;;5094641;28;20039;-73
2023/10/16 06:41:23;;;;;;;18.25;5.28;;;32.10;99.90;;;;;;5095278;28;20052;-72
2023/10/16 06:43:49;;;;;;;21.52;5.30;;;32.40;99.90;;;;;;5095207;28;20059;-72
2023/10/16 06:46:25;;;;;;;22.70;5.45;;;32.30;99.90;;;;;;5076745;28;20031;-73
2023/10/16 06:48:52;;;;;;;23.05;5.43;;;32.50;99.90;;;;;;5095616;28;20439;-73
2023/10/16 06:51:25;;;;;;;25.85;5.18;;;32.70;99.90;;;;;;5095250;28;20534;-72
2023/10/16 06:54:01;;;;;;;20.50;5.05;;;32.10;99.90;;;;;;5095326;28;20082;-73
2023/10/16 06:56:30;;;;;;;21.25;5.18;;;32.50;99.90;;;;;;5094944;28;20383;-73
2023/10/16 06:58:58;;;;;;;21.20;5.03;;;32.30;99.90;;;;;;5093548;28;20040;-72
2023/10/16 07:01:25;;;;;;;20.98;6.53;;;32.90;99.90;;;;;;5095206;28;20353;-72
2023/10/16 07:03:54;;;;;;;23.92;5.00;;;33.20;99.90;;;;;;5076506;28;20077;-72
2023/10/16 07:06:24;;;;;;;17.58;4.70;;;33.10;99.90;;;;;;5095090;28;20105;-73
2023/10/16 07:08:52;;;;;;;20.95;4.57;;;33.60;99.90;;;;;;5094448;28;20552;-72
2023/10/16 07:11:20;;;;;;;21.08;5.38;;;33.40;99.90;;;;;;5094706;28;20478;-72
2023/10/16 07:13:48;;;;;;;20.10;4.65;;;33.00;99.90;;;;;;5094253;28;20059;-72
2023/10/16 07:16:15;;;;;;;19.13;4.88;;;32.70;99.90;;;;;;5094635;28;20107;-71
2023/10/16 07:18:44;;;;;;;21.70;4.47;;;33.40;99.90;;;;;;5075744;28;20044;-73
2023/10/16 07:21:17;;;;;;;16.50;5.00;;;32.50;99.90;;;;;;5094373;28;20024;-72
2023/10/16 07:23:44;;;;;;;20.20;5.32;;;32.90;99.90;;;;;;5094338;28;20024;-72
2023/10/16 07:26:11;;;;;;;18.10;5.40;;;32.10;99.90;;;;;;5093916;28;20016;-72
2023/10/16 07:28:40;;;;;;;22.73;5.22;;;32.20;99.90;;;;;;5093804;28;20024;-71
2023/10/16 07:31:10;;;;;;;22.02;5.13;;;32.00;99.90;;;;;;5094355;28;20528;-72
2023/10/16 07:33:36;;;;;;;21.13;5.57;;;31.40;99.90;;;;;;5093677;28;20519;-71
2023/10/16 07:36:10;;;;;;;18.88;5.20;;;31.20;99.90;;;;;;5075518;28;20109;-72
2023/10/16 07:38:38;;;;;;;29.13;8.38;;;30.20;99.90;;;;;;5094819;28;20063;-69
2023/10/16 07:41:09;;;;;;;17.23;6.35;;;29.50;99.90;;;;;;5085492;28;20045;-71
2023/10/16 07:43:36;;;;;;;24.48;6.25;;;29.30;99.90;;;;;;5072230;28;20077;-71
2023/10/16 07:48:42;;;;;;;21.42;6.20;;;29.50;99.90;;;;;;5086900;28;20079;-70
2023/10/16 07:51:19;;;;;;;20.92;5.85;;;29.40;99.90;;;;;;5085722;28;20020;-71
2023/10/16 07:53:48;;;;;;;19.13;5.60;;;29.30;99.90;;;;;;5073632;28;20024;-72
2023/10/16 07:56:38;;;;;;;18.98;6.20;;;28.90;99.90;;;;;;5073130;28;20021;-71
2023/10/16 07:59:12;;;;;;;30.73;6.60;;;28.50;99.90;;;;;;5072148;28;20166;-71
2023/10/16 08:01:53;;;;;;;23.02;7.03;;;28.40;99.90;;;;;;5073012;28;20012;-71
2023/10/16 08:06:52;;;;;;;22.50;6.13;;;28.30;99.90;;;;;;5072397;28;20032;-72
2023/10/16 08:11:53;;;;;;;23.55;6.45;;;28.40;99.90;;;;;;5071630;28;20025;-71
2023/10/16 08:14:19;;;;;;;22.67;6.72;;;28.40;99.90;;;;;;5073067;28;20028;-72
2023/10/16 08:16:45;;;;;;;20.02;5.97;;;28.50;99.90;;;;;;5054686;28;20461;-72
2023/10/16 08:19:24;;;;;;;28.38;7.03;;;28.60;99.90;;;;;;5057199;28;20036;-72
2023/10/16 08:21:54;;;;;;;24.10;8.35;;;28.90;99.90;;;;;;5093478;28;20020;-71
2023/10/16 08:24:21;;;;;;;24.33;6.90;;;29.20;99.90;;;;;;5092948;28;20034;-70
2023/10/16 08:26:48;;;;;;;22.83;7.03;;;28.90;99.90;;;;;;5074906;28;20047;-71
2023/10/16 08:34:40;;;;;;;32.80;6.32;;;28.90;99.90;;;;;;5045393;28;20043;-72
2023/10/16 08:37:09;;;;;;;;;;;28.90;99.90;;;;;;5093743;28;20051;-74
2023/10/16 08:39:44;;;;;;;25.67;6.65;;;28.40;99.90;;;;;;5092576;28;19939;-71
2023/10/16 08:42:19;;;;;;;24.48;6.18;;;28.50;99.90;;;;;;5092655;28;20077;-73
2023/10/16 08:45:14;;;;;;;28.73;6.77;;;28.40;99.90;;;;;;5093368;28;20024;-71
2023/10/16 08:47:46;;;;;;;23.47;6.97;;;28.30;99.90;;;;;;5092439;28;20707;-72
2023/10/16 08:50:18;;;;;;;20.02;5.95;;;28.20;99.90;;;;;;5092201;28;20059;-72
2023/10/16 08:52:51;;;;;;;21.40;7.38;;;28.00;99.90;;;;;;5073803;28;20400;-70
2023/10/16 08:55:18;;;;;;;21.73;6.30;;;27.90;99.90;;;;;;5073663;28;20101;-71
2023/10/16 08:57:45;;;;;;;22.70;6.88;;;27.80;99.90;;;;;;5092116;28;20047;-72
2023/10/16 09:00:21;;;;;;;29.70;7.13;;;27.60;99.90;;;;;;5092561;28;20035;-72
2023/10/16 09:02:53;;;;;;;27.30;6.32;;;27.30;99.90;;;;;;5092086;28;20448;-71
2023/10/16 09:05:20;;;;;;;20.42;6.80;;;27.40;99.90;;;;;;5091909;28;20089;-71
2023/10/16 09:07:51;;;;;;;30.77;7.50;;;27.60;99.90;;;;;;5091520;28;20024;-72
2023/10/16 09:10:21;;;;;;;29.42;7.68;;;27.50;99.90;;;;;;5092129;28;20023;-72
2023/10/16 09:12:55;;;;;;;19.73;6.93;;;27.80;99.90;;;;;;5072782;28;20032;-70
2023/10/16 09:15:30;;;;;;;25.52;7.75;;;27.50;99.90;;;;;;5091890;28;20024;-70
2023/10/16 09:17:56;;;;;;;25.55;8.07;;;27.50;99.90;;;;;;5092108;28;20092;-72
2023/10/16 09:20:33;;;;;;;34.55;6.95;;;27.60;99.90;;;;;;5091767;28;20028;-71
2023/10/16 09:23:05;;;;;;;29.05;6.60;;;27.60;99.90;;;;;;5092007;28;20071;-73
2023/10/16 09:25:31;;;;;;;21.30;6.10;;;27.70;99.90;;;;;;5092439;28;20020;-72
2023/10/16 09:27:58;;;;;;;29.77;7.07;;;27.50;99.90;;;;;;5091483;28;20047;-72
2023/10/16 09:30:28;;;;;;;;;;;27.30;99.90;;;;;;5092086;28;20028;-72
2023/10/16 09:32:54;;;;;;;20.73;6.40;;;27.40;99.90;;;;;;5092436;28;19904;-72
2023/10/16 09:35:30;;;;;;;;;;;27.70;99.90;;;;;;5092109;28;20027;-71
2023/10/16 09:38:19;;;;;;;26.98;6.43;;;27.90;99.90;;;;;;5091936;28;19946;-71
2023/10/16 09:44:22;;;;;;;24.25;6.20;;;27.60;99.90;;;;;;5091392;28;20400;-71
2023/10/16 09:46:52;;;;;;;24.92;6.00;;;27.60;99.90;;;;;;5091907;28;20427;-71
2023/10/16 09:49:22;;;;;;;22.25;5.95;;;27.60;99.90;;;;;;5091495;28;20023;-72
2023/10/16 09:51:50;;;;;;;19.42;5.78;;;28.00;99.90;;;;;;5091204;28;20040;-71
2023/10/16 09:54:21;;;;;;;31.02;7.25;;;27.80;99.90;;;;;;5091299;28;20046;-71
2023/10/16 09:56:52;;;;;;;23.30;5.93;;;27.80;99.90;;;;;;5091918;28;20020;-71
2023/10/16 09:59:38;;;;;;;25.10;6.03;;;27.90;99.90;;;;;;5091149;28;20433;-72
2023/10/16 10:02:05;;;;;;;21.42;6.13;;;27.80;99.90;;;;;;5091328;28;20033;-71
2023/10/16 10:04:36;;;;;;;36.10;6.25;;;28.10;99.90;;;;;;5090955;28;20095;-72
2023/10/16 10:07:19;;;;;;;21.05;5.75;;;27.90;99.90;;;;;;5091316;28;20059;-73
2023/10/16 10:09:47;;;;;;;28.20;6.72;;;28.10;99.90;;;;;;5091699;28;20085;-71
2023/10/16 10:12:42;;;;;;;24.98;6.53;;;28.00;99.90;;;;;;5091149;28;20107;-72
2023/10/16 10:15:34;;;;;;;31.00;6.90;;;28.10;99.90;;;;;;5091250;28;20016;-71
2023/10/16 10:18:31;;;;;;;20.58;6.43;;;28.10;99.90;;;;;;5091593;28;20043;-71
2023/10/16 10:20:58;;;;;;;30.27;6.40;;;28.30;99.90;;;;;;5090597;28;20409;-72
2023/10/16 10:23:28;;;;;;;24.40;6.07;;;28.30;99.90;;;;;;5091924;28;20119;-71
2023/10/16 10:25:54;;;;;;;38.67;6.72;;;28.40;99.90;;;;;;5091672;28;20041;-71
2023/10/16 10:28:29;;;;;;;21.42;6.55;;;27.90;99.90;;;;;;5091065;28;20024;-71
2023/10/16 10:31:02;;;;;;;23.63;6.22;;;27.80;99.90;;;;;;5090833;28;20035;-71
2023/10/16 10:33:38;;;;;;;23.67;6.80;;;27.60;99.90;;;;;;5091564;28;20032;-71
2023/10/16 10:36:38;;;;;;;31.92;6.05;;;27.50;99.90;;;;;;5094660;28;20030;-72
2023/10/16 10:39:20;;;;;;;23.45;6.50;;;27.80;99.90;;;;;;5095143;28;20329;-71
2023/10/16 10:41:51;;;;;;;27.10;6.30;;;28.20;99.90;;;;;;5095573;28;20058;-73
2023/10/16 10:44:19;;;;;;;27.48;6.20;;;28.20;99.90;;;;;;5094855;28;20452;-71
2023/10/16 10:46:53;;;;;;;22.00;6.20;;;28.00;99.90;;;;;;5095429;28;20053;-73
2023/10/16 10:49:36;;;;;;;20.35;6.18;;;28.00;99.90;;;;;;5094394;28;20074;-73
2023/10/16 10:52:12;;;;;;;25.05;6.28;;;28.00;99.90;;;;;;5094988;28;20029;-72
2023/10/16 10:54:48;;;;;;;25.92;6.30;;;27.90;99.90;;;;;;5095062;28;20032;-72
2023/10/16 10:57:20;;;;;;;17.45;5.88;;;28.20;99.90;;;;;;5095194;28;20444;-69
2023/10/16 10:59:47;;;;;;;55.20;7.32;;;28.50;99.90;;;;;;5095189;28;20119;-72
2023/10/16 11:04:46;;;;;;;18.90;6.03;;;28.60;99.90;;;;;;5094378;28;20502;-72
2023/10/16 11:07:23;;;;;;;19.80;5.72;;;28.50;99.90;;;;;;5094962;28;20028;-72
2023/10/16 11:09:52;;;;;;;26.25;5.93;;;28.50;99.90;;;;;;5095091;28;20073;-72
2023/10/16 11:12:25;;;;;;;20.42;6.03;;;28.40;99.90;;;;;;5094989;28;20024;-72
2023/10/16 11:14:53;;;;;;;17.10;5.07;;;28.30;99.90;;;;;;5094967;28;20111;-71
2023/10/16 11:17:35;;;;;;;31.13;6.20;;;28.50;99.90;;;;;;5094502;28;20020;-72
2023/10/16 11:22:43;;;;;;;19.70;5.80;;;28.60;99.90;;;;;;5094641;28;20077;-72
2023/10/16 11:25:13;;;;;;;21.92;5.70;;;28.70;99.90;;;;;;5076421;28;20028;-70
2023/10/16 11:27:44;;;;;;;19.83;5.65;;;28.40;99.90;;;;;;5094633;28;20082;-71
2023/10/16 11:30:14;;;;;;;13.90;5.88;;;28.40;99.90;;;;;;5076038;28;20049;-71
2023/10/16 11:32:49;;;;;;;20.10;5.18;;;28.40;99.90;;;;;;5094929;28;20495;-71
2023/10/16 11:35:17;;;;;;;28.30;5.80;;;28.40;99.90;;;;;;5076459;28;20020;-71
2023/10/16 11:37:50;;;;;;;22.90;5.82;;;28.30;99.90;;;;;;5094603;28;20028;-71
2023/10/16 11:40:31;;;;;;;25.05;5.85;;;28.20;99.90;;;;;;5072599;28;20191;-70
2023/10/16 11:42:59;;;;;;;23.67;6.65;;;28.50;99.90;;;;;;5072512;28;20021;-71
2023/10/16 11:45:25;;;;;;;26.92;9.32;;;28.40;99.90;;;;;;5073838;28;20028;-71
2023/10/16 11:48:20;;;;;;;29.05;10.15;;;28.50;99.90;;;;;;5073724;28;20453;-70
2023/10/16 11:50:50;;;;;;;19.63;7.07;;;28.60;99.90;;;;;;5073673;28;20160;-71
2023/10/16 11:53:28;;;;;;;24.98;7.05;;;28.40;99.90;;;;;;5074030;28;20496;-72
2023/10/16 11:55:54;;;;;;;23.42;7.10;;;28.40;99.90;;;;;;5073676;28;20025;-72
2023/10/16 11:58:22;;;;;;;26.05;7.43;;;28.20;99.90;;;;;;5072405;28;20040;-71
2023/10/16 12:00:54;;;;;;;26.88;7.82;;;28.20;99.90;;;;;;5073904;28;20078;-72
2023/10/16 12:03:26;;;;;;;27.20;10.07;;;28.10;99.90;;;;;;5073680;28;20439;-71
2023/10/16 12:05:55;;;;;;;30.10;9.30;;;28.20;99.90;;;;;;5073774;28;20025;-71
2023/10/16 12:08:21;;;;;;;30.80;7.50;;;28.20;99.90;;;;;;5074237;28;20024;-71
2023/10/16 12:10:51;;;;;;;19.73;7.10;;;28.30;99.90;;;;;;5073542;28;20029;-72
2023/10/16 12:13:17;;;;;;;19.67;6.05;;;28.50;99.90;;;;;;5073878;28;20024;-72
2023/10/16 12:15:46;;;;;;;23.95;5.80;;;28.40;99.90;;;;;;5074292;28;20016;-71
2023/10/16 12:18:14;;;;;;;25.95;5.65;;;28.30;99.90;;;;;;5073683;28;20040;-71
2023/10/16 12:20:40;;;;;;;20.67;5.50;;;28.30;99.90;;;;;;5073412;28;20361;-71
2023/10/16 12:23:06;;;;;;;16.52;5.70;;;28.20;99.90;;;;;;5074118;28;20033;-71
2023/10/16 12:25:34;;;;;;;23.70;6.35;;;28.20;99.90;;;;;;5074114;28;20089;-71
2023/10/16 12:28:08;;;;;;;23.48;5.97;;;28.20;99.90;;;;;;5073516;28;20025;-71
2023/10/16 12:30:36;;;;;;;21.63;6.25;;;27.90;99.90;;;;;;5073543;28;20377;-71
2023/10/16 12:33:06;;;;;;;25.23;5.72;;;27.70;99.90;;;;;;5073560;28;20036;-72
2023/10/16 12:35:34;;;;;;;18.75;5.60;;;27.60;99.90;;;;;;5073382;28;20043;-71
2023/10/16 12:38:07;;;;;;;25.05;5.70;;;27.60;99.90;;;;;;5073945;28;20028;-71
2023/10/16 12:40:39;;;;;;;24.15;5.95;;;27.70;99.90;;;;;;5072040;28;20052;-71
2023/10/16 12:43:09;;;;;;;22.77;5.60;;;27.50;99.90;;;;;;5073677;28;20388;-71
2023/10/16 12:45:37;;;;;;;18.65;5.88;;;27.50;99.90;;;;;;5073032;28;20024;-71
2023/10/16 12:48:04;;;;;;;21.90;6.57;;;27.30;99.90;;;;;;5072687;28;20434;-71
2023/10/16 12:50:30;;;;;;;27.50;6.25;;;27.20;99.90;;;;;;5072494;28;20111;-71
2023/10/16 12:52:58;;;;;;;19.23;6.00;;;27.10;99.90;;;;;;5072868;28;20174;-71
2023/10/16 12:55:26;;;;;;;22.75;6.20;;;27.10;99.90;;;;;;5072859;28;20086;-72
2023/10/16 12:57:53;;;;;;;23.00;6.35;;;27.10;99.90;;;;;;5072405;28;20100;-71
2023/10/16 13:00:22;;;;;;;23.58;6.28;;;27.20;99.90;;;;;;5072764;28;20036;-72
2023/10/16 13:02:50;;;;;;;18.77;6.10;;;27.20;99.90;;;;;;5071230;28;20032;-72
2023/10/16 13:05:24;;;;;;;24.10;6.00;;;27.30;99.90;;;;;;5072533;28;20111;-71
2023/10/16 13:07:51;;;;;;;22.90;6.43;;;27.20;99.90;;;;;;5072533;28;20020;-71
2023/10/16 13:10:25;;;;;;;22.48;6.38;;;27.00;99.90;;;;;;5072380;28;20082;-71
2023/10/16 13:12:51;;;;;;;20.30;6.03;;;27.10;99.90;;;;;;5072943;28;20027;-71
2023/10/16 13:15:31;;;;;;;27.30;6.60;;;27.30;99.90;;;;;;5072832;28;20024;-72
2023/10/16 13:18:01;;;;;;;18.88;5.82;;;27.30;99.90;;;;;;5073311;28;20016;-72
2023/10/16 13:20:27;;;;;;;26.60;6.05;;;27.30;99.90;;;;;;5072990;28;20031;-71
2023/10/16 13:22:55;;;;;;;28.48;6.32;;;27.40;99.90;;;;;;5072951;28;20074;-71
2023/10/16 13:25:25;;;;;;;19.58;5.97;;;27.30;99.90;;;;;;5072708;28;20021;-71
2023/10/16 13:27:52;;;;;;;21.58;6.50;;;27.00;99.90;;;;;;5073021;28;20021;-71
2023/10/16 13:30:22;;;;;;;21.95;6.20;;;27.10;99.90;;;;;;5073309;28;20020;-71
2023/10/16 13:32:49;;;;;;;25.42;6.10;;;27.10;99.90;;;;;;5072953;28;20012;-72
2023/10/16 13:35:16;;;;;;;24.85;6.10;;;26.90;99.90;;;;;;5072732;28;20466;-71
2023/10/16 13:37:43;;;;;;;23.10;6.78;;;27.00;99.90;;;;;;5072688;28;20028;-71
2023/10/16 13:40:28;;;;;;;21.70;6.50;;;27.00;99.90;;;;;;5082288;28;20125;-72
2023/10/16 13:42:55;;;;;;;23.73;5.78;;;27.20;99.90;;;;;;5074728;28;20265;-71
2023/10/16 13:45:25;;;;;;;17.55;5.75;;;27.30;99.90;;;;;;5092840;28;20027;-70
2023/10/16 13:47:51;;;;;;;20.55;5.70;;;27.40;99.90;;;;;;5092427;28;20020;-70
2023/10/16 13:50:27;;;;;;;24.80;6.80;;;27.30;99.90;;;;;;5074448;28;20020;-71
2023/10/16 13:52:54;;;;;;;23.80;6.20;;;27.30;99.90;;;;;;5092701;28;20021;-71
2023/10/16 13:55:22;;;;;;;19.17;5.60;;;27.20;99.90;;;;;;5092340;28;20464;-71
2023/10/16 13:57:50;;;;;;;23.70;6.63;;;27.10;99.90;;;;;;5092852;28;20043;-71
2023/10/16 14:00:31;;;;;;;20.85;6.43;;;27.20;99.90;;;;;;5092615;28;20038;-72
2023/10/16 14:03:07;;;;;;;23.30;6.15;;;27.30;99.90;;;;;;5092436;28;20161;-71
2023/10/16 14:05:56;;;;;;;26.67;6.05;;;27.40;99.90;;;;;;5092233;28;20035;-71
2023/10/16 14:08:36;;;;;;;22.40;6.10;;;27.50;99.90;;;;;;5093850;28;20028;-71
2023/10/16 14:11:03;;;;;;;19.90;5.50;;;27.50;99.90;;;;;;5096144;28;20028;-72
2023/10/16 14:13:32;;;;;;;20.35;6.05;;;27.40;99.90;;;;;;5096262;28;20122;-71
2023/10/16 14:16:10;;;;;;;22.90;6.20;;;27.40;99.90;;;;;;5096743;28;20020;-71
2023/10/16 14:18:38;;;;;;;27.63;5.72;;;27.30;99.90;;;;;;5096344;28;20127;-71
2023/10/16 14:21:08;;;;;;;17.17;6.05;;;27.20;99.90;;;;;;5061355;28;20016;-71
2023/10/16 14:23:35;;;;;;;21.95;5.63;;;27.20;99.90;;;;;;5096680;28;20024;-71
2023/10/16 14:26:01;;;;;;;18.48;5.68;;;27.10;99.90;;;;;;5096163;28;20419;-71
2023/10/16 14:28:38;;;;;;;21.10;6.05;;;26.80;99.90;;;;;;5096049;28;20353;-71
2023/10/16 14:31:09;;;;;;;22.88;5.95;;;26.90;99.90;;;;;;5096471;28;20020;-71
2023/10/16 14:33:36;;;;;;;18.38;5.20;;;27.00;99.90;;;;;;5096601;28;20030;-71
2023/10/16 14:36:09;;;;;;;22.42;6.32;;;27.00;99.90;;;;;;5077436;28;20050;-71
2023/10/16 14:38:37;;;;;;;18.65;6.40;;;27.00;99.90;;;;;;5095762;28;20039;-71
2023/10/16 14:41:06;;;;;;;24.92;6.28;;;26.80;99.90;;;;;;5095704;28;20075;-72
2023/10/16 14:43:36;;;;;;;26.15;6.20;;;26.90;99.90;;;;;;5095804;28;20020;-71